Time;durP1;ratioP1;P1;durP2;ratioP2;P2;SDS_P1;SDS_P2;PMS_P1;PMS_P2;Temp;Humidity;BMP_temperature;BMP_pressure;BME280_temperature;BME280_humidity;BME280_pressure;Samples;Min_cycle;Max_cycle;Signal;HPM_P1;HPM_P2
2021/04/03 00:00:49;;;;;;;29.02;12.98;;;;;;;-0.68;93.18;98761.22;1729894;82;21073;-73
2021/04/03 00:03:18;;;;;;;27.15;12.43;;;;;;;-0.74;92.83;98754.71;1722579;82;21554;-74
2021/04/03 00:05:45;;;;;;;32.08;13.80;;;;;;;-0.80;92.62;98759.27;1741663;82;21385;-72
2021/04/03 00:08:13;;;;;;;23.35;13.30;;;;;;;-0.87;92.44;98760.03;1729200;82;21188;-72
2021/04/03 00:10:48;;;;;;;26.27;13.60;;;;;;;-0.92;92.45;98757.84;1722723;82;21698;-73
2021/04/03 00:13:17;;;;;;;28.10;12.70;;;;;;;-0.95;92.52;98763.20;1735723;81;21089;-72
2021/04/03 00:15:45;;;;;;;27.22;12.73;;;;;;;-0.98;92.58;98764.27;1747370;81;21073;-72
2021/04/03 00:18:14;;;;;;;29.65;12.30;;;;;;;-1.05;92.47;98759.91;1737826;80;21205;-72
2021/04/03 00:20:43;;;;;;;24.35;12.18;;;;;;;-1.10;92.44;98761.22;1765951;80;21121;-73
2021/04/03 00:23:11;;;;;;;31.90;13.05;;;;;;;-1.11;92.57;98758.78;1742513;81;21018;-73
2021/04/03 00:25:38;;;;;;;29.82;13.08;;;;;;;-1.13;92.71;98755.00;1685480;82;21218;-73
2021/04/03 00:28:06;;;;;;;27.13;12.75;;;;;;;-1.15;92.82;98757.14;1705834;83;20944;-73
2021/04/03 00:30:33;;;;;;;25.75;12.90;;;;;;;-1.18;92.78;98756.88;1751542;80;21489;-73
2021/04/03 00:33:04;;;;;;;21.85;11.05;;;;;;;-1.21;92.82;98754.70;1716643;82;21217;-73
2021/04/03 00:35:35;;;;;;;27.87;12.60;;;;;;;-1.25;92.87;98747.67;1707749;82;21608;-73
2021/04/03 00:38:06;;;;;;;26.85;12.18;;;;;;;-1.27;92.90;98749.00;1689847;83;21077;-73
2021/04/03 00:40:40;;;;;;;23.18;12.13;;;;;;;-1.30;92.94;98746.82;1725150;81;21128;-73
2021/04/03 00:43:11;;;;;;;30.35;12.35;;;;;;;-1.31;93.02;98751.93;1736317;82;21143;-72
2021/04/03 00:45:40;;;;;;;28.98;12.60;;;;;;;-1.31;93.27;98751.93;1723693;81;21132;-73
2021/04/03 00:48:09;;;;;;;22.45;11.33;;;;;;;-1.30;93.69;98761.63;1722946;82;21572;-72
2021/04/03 00:50:44;;;;;;;22.80;11.55;;;;;;;-1.38;93.19;98759.69;1764437;80;21072;-73
2021/04/03 00:53:26;;;;;;;29.35;12.20;;;;;;;-1.52;92.60;98750.42;1769043;80;21104;-72
2021/04/03 00:55:57;;;;;;;25.40;11.97;;;;;;;-1.62;92.46;98749.52;1764047;80;21369;-73
2021/04/03 00:58:26;;;;;;;28.92;12.28;;;;;;;-1.69;92.57;98751.88;1762816;80;21077;-73
2021/04/03 01:00:54;;;;;;;41.00;16.15;;;;;;;-1.71;92.67;98748.64;1759970;80;20958;-73
2021/04/03 01:03:23;;;;;;;47.67;18.52;;;;;;;-1.71;93.02;98752.67;1756914;80;21223;-73
2021/04/03 01:05:53;;;;;;;37.60;15.20;;;;;;;-1.73;93.07;98753.99;1771155;80;21088;-73
2021/04/03 01:08:20;;;;;;;33.23;13.95;;;;;;;-1.75;93.09;98761.54;1712785;83;21379;-73
2021/04/03 01:10:53;;;;;;;28.55;12.15;;;;;;;-1.76;93.25;98757.22;1736284;81;20982;-72
2021/04/03 01:13:48;;;;;;;29.05;12.75;;;;;;;-1.68;94.03;98755.38;1689420;83;21577;-72
2021/04/03 01:16:42;;;;;;;30.60;13.88;;;;;;;-1.50;94.72;98756.89;1758781;80;21102;-71
2021/04/03 01:19:33;;;;;;;32.58;13.22;;;;;;;-1.44;94.18;98749.14;1695263;83;21608;-71
2021/04/03 01:22:55;;;;;;;27.07;12.90;;;;;;;-1.45;93.69;98748.86;1719990;82;21278;-72
2021/04/03 01:25:39;;;;;;;26.68;12.88;;;;;;;-1.49;93.36;98748.56;1764116;80;21093;-71
2021/04/03 01:28:34;;;;;;;24.95;12.55;;;;;;;-1.54;93.18;98755.25;1757312;80;21156;-72
2021/04/03 01:31:03;;;;;;;26.77;11.93;;;;;;;-1.59;93.10;98754.39;1734397;80;21124;-73
2021/04/03 01:33:30;;;;;;;26.40;12.05;;;;;;;-1.65;93.01;98752.19;1726639;82;21576;-74
2021/04/03 01:36:16;;;;;;;24.07;12.33;;;;;;;-1.67;93.08;98754.32;1686624;83;21379;-74
2021/04/03 01:38:49;;;;;;;25.12;11.88;;;;;;;-1.69;93.05;98753.77;1699933;83;21509;-72
2021/04/03 01:41:23;;;;;;;23.62;11.40;;;;;;;-1.73;92.95;98754.80;1703384;83;21164;-71
2021/04/03 01:43:53;;;;;;;23.30;11.20;;;;;;;-1.75;92.98;98762.35;1763839;80;21126;-71
2021/04/03 01:46:22;;;;;;;23.40;11.50;;;;;;;-1.75;93.14;98760.20;1756480;80;21126;-71
2021/04/03 01:51:29;;;;;;;25.97;12.15;;;;;;;-1.72;93.32;98761.81;1873644;76;22635;-69
2021/04/03 01:53:58;;;;;;;23.90;11.83;;;;;;;-1.75;93.33;98764.23;1841723;78;20904;-70
2021/04/03 01:56:26;;;;;;;23.00;10.43;;;;;;;-1.75;93.40;98761.00;1841709;78;22190;-69
2021/04/03 01:58:54;;;;;;;19.57;10.35;;;;;;;-1.73;93.48;98757.50;1841631;78;20980;-72
2021/04/03 02:01:22;;;;;;;24.80;10.68;;;;;;;-1.73;93.37;98753.99;1841640;77;20992;-72
2021/04/03 02:03:50;;;;;;;23.83;9.95;;;;;;;-1.75;93.20;98759.66;1810204;77;21558;-72
2021/04/03 02:06:19;;;;;;;28.25;11.93;;;;;;;-1.77;93.15;98760.98;1808685;79;21486;-74
2021/04/03 02:09:00;;;;;;;21.65;10.75;;;;;;;-1.82;93.10;98751.52;1807766;79;22523;-74
2021/04/03 02:11:45;;;;;;;31.62;12.18;;;;;;;-1.86;93.01;98751.74;1807644;79;21118;-74
2021/04/03 02:14:31;;;;;;;38.25;13.98;;;;;;;-1.89;93.06;98749.56;1784165;79;21621;-73
2021/04/03 02:17:00;;;;;;;39.48;14.20;;;;;;;-1.93;93.07;98750.59;1808559;79;21495;-73
2021/04/03 02:19:27;;;;;;;35.25;14.73;;;;;;;-1.95;93.11;98747.89;1808720;79;21443;-74
2021/04/03 02:21:55;;;;;;;29.00;11.15;;;;;;;-1.95;93.22;98754.61;1808600;79;21345;-74
2021/04/03 02:24:23;;;;;;;29.85;10.93;;;;;;;-1.96;93.24;98748.95;1808508;79;21023;-74
2021/04/03 02:26:50;;;;;;;28.60;9.70;;;;;;;-1.95;93.24;98750.05;1808636;79;21534;-73
2021/04/03 02:29:18;;;;;;;23.42;8.98;;;;;;;-1.96;93.23;98744.38;1808521;79;20877;-73
2021/04/03 02:31:49;;;;;;;22.90;8.78;;;;;;;-1.95;93.24;98747.89;1808625;79;20920;-74
2021/04/03 02:34:17;;;;;;;17.57;6.45;;;;;;;-1.93;93.30;98747.91;1808716;79;22274;-73
2021/04/03 02:36:45;;;;;;;12.65;6.37;;;;;;;-1.90;93.36;98750.63;1808609;79;20995;-74
2021/04/03 02:39:14;;;;;;;20.65;6.87;;;;;;;-1.88;93.37;98746.62;1808597;79;21012;-74
2021/04/03 02:42:03;;;;;;;17.35;6.80;;;;;;;-1.87;93.33;98745.55;1808670;79;21564;-74
2021/04/03 02:44:52;;;;;;;15.45;6.05;;;;;;;-1.88;93.13;98751.19;1808651;79;21371;-74
2021/04/03 02:47:27;;;;;;;13.18;5.42;;;;;;;-1.91;92.93;98751.69;1808596;78;21189;-75
2021/04/03 02:50:05;;;;;;;12.15;5.60;;;;;;;-1.92;92.96;98751.41;1809680;79;20984;-73
2021/04/03 02:52:36;;;;;;;12.70;5.53;;;;;;;-1.91;93.00;98749.00;1814289;79;21007;-73
2021/04/03 02:55:06;;;;;;;15.08;6.00;;;;;;;-1.92;92.93;98750.87;1814319;79;20980;-73
2021/04/03 02:57:34;;;;;;;18.82;7.10;;;;;;;-1.91;92.92;98753.84;1814398;79;20992;-73
2021/04/03 03:00:05;;;;;;;38.33;12.30;;;;;;;-1.92;92.83;98749.53;1814263;79;21322;-73
2021/04/03 03:02:33;;;;;;;53.65;14.70;;;;;;;-1.93;92.79;98746.56;1813709;77;21101;-73
2021/04/03 03:05:05;;;;;;;75.08;21.95;;;;;;;-1.93;92.67;98748.44;1813785;79;20987;-73
2021/04/03 03:07:34;;;;;;;92.22;25.72;;;;;;;-1.95;92.55;98746.54;1813726;79;20983;-73
2021/04/03 03:10:04;;;;;;;83.47;23.60;;;;;;;-2.00;92.38;98744.08;1813664;79;21007;-72
2021/04/03 03:12:33;;;;;;;66.33;18.25;;;;;;;-2.05;92.28;98743.21;1813728;79;21596;-72
2021/04/03 03:15:04;;;;;;;62.05;17.30;;;;;;;-2.11;92.21;98743.69;1813586;79;20987;-72
2021/04/03 03:17:32;;;;;;;43.95;16.25;;;;;;;-2.14;92.25;98747.41;1813723;79;21545;-72
2021/04/03 03:20:03;;;;;;;43.83;14.53;;;;;;;-2.19;92.25;98744.14;1813604;79;20971;-72
2021/04/03 03:22:31;;;;;;;30.02;11.95;;;;;;;-2.21;92.27;98731.48;1813776;78;21134;-72
2021/04/03 03:24:59;;;;;;;43.48;12.35;;;;;;;-2.25;92.30;98735.73;1786831;79;21235;-71
2021/04/03 03:27:27;;;;;;;27.20;11.25;;;;;;;-2.27;92.40;98735.17;1787073;79;20937;-71
2021/04/03 03:29:55;;;;;;;32.15;11.63;;;;;;;-2.28;92.53;98738.92;1786424;79;21106;-72
2021/04/03 03:32:23;;;;;;;31.30;11.33;;;;;;;-2.31;92.59;98732.70;1813737;78;21007;-72
2021/04/03 03:34:56;;;;;;;37.35;15.32;;;;;;;-2.35;92.57;98739.15;1812887;78;21558;-72
2021/04/03 03:37:25;;;;;;;34.23;13.83;;;;;;;-2.38;92.60;98739.66;1786469;78;21185;-72
2021/04/03 03:39:53;;;;;;;27.05;11.78;;;;;;;-2.38;92.73;98731.59;1813687;79;21565;-72
2021/04/03 03:42:22;;;;;;;28.77;11.88;;;;;;;-2.38;92.76;98736.16;1787376;79;21596;-72
2021/04/03 03:44:51;;;;;;;30.65;12.18;;;;;;;-2.39;92.79;98738.56;1813728;78;20881;-72
2021/04/03 03:47:20;;;;;;;31.82;12.45;;;;;;;-2.39;92.87;98735.87;1813697;79;20932;-72
2021/04/03 03:49:49;;;;;;;31.20;11.68;;;;;;;-2.39;92.95;98738.56;1812698;78;21195;-72
2021/04/03 03:52:17;;;;;;;28.95;11.38;;;;;;;-2.40;93.03;98736.94;1800009;79;20964;-73
2021/04/03 03:54:46;;;;;;;26.20;10.23;;;;;;;-2.39;93.06;98736.69;1800058;78;20880;-73
2021/04/03 03:57:14;;;;;;;30.80;11.28;;;;;;;-2.38;93.16;98739.66;1800006;79;21121;-73
2021/04/03 03:59:43;;;;;;;32.28;10.80;;;;;;;-2.36;93.25;98732.69;1800020;79;20991;-72
2021/04/03 04:02:12;;;;;;;25.48;11.28;;;;;;;-2.33;93.34;98738.90;1800063;78;22278;-73
2021/04/03 04:04:41;;;;;;;26.65;11.38;;;;;;;-2.32;93.44;98740.52;1799986;79;21046;-74
2021/04/03 04:07:09;;;;;;;25.80;11.88;;;;;;;-2.28;93.66;98738.92;1800123;79;21474;-72
2021/04/03 04:09:40;;;;;;;27.73;10.95;;;;;;;-2.23;93.83;98738.17;1800061;79;21058;-73
2021/04/03 04:12:10;;;;;;;27.32;12.47;;;;;;;-2.19;93.94;98738.77;1800080;79;20927;-71
2021/04/03 04:14:39;;;;;;;34.23;17.20;;;;;;;-2.14;94.07;98740.16;1799532;79;22328;-73
2021/04/03 04:17:07;;;;;;;38.35;18.07;;;;;;;-2.05;94.51;98741.33;1799984;78;21152;-74
2021/04/03 04:19:37;;;;;;;45.08;17.62;;;;;;;-1.92;95.10;98738.77;1799982;79;20912;-73
2021/04/03 04:22:05;;;;;;;45.50;20.77;;;;;;;-1.71;95.71;98748.64;1800077;78;20983;-73
2021/04/03 04:24:33;;;;;;;76.25;32.63;;;;;;;-1.53;95.89;98750.14;1800111;79;20995;-72
2021/04/03 04:27:01;;;;;;;64.72;29.48;;;;;;;-1.37;96.00;98746.51;1799998;79;21356;-72
2021/04/03 04:29:30;;;;;;;61.02;31.65;;;;;;;-1.21;96.02;98746.09;1800024;78;21489;-71
2021/04/03 04:32:01;;;;;;;51.45;30.60;;;;;;;-1.10;95.68;98748.29;1800010;79;20916;-73
2021/04/03 04:34:29;;;;;;;57.15;33.48;;;;;;;-0.99;95.34;98749.98;1785215;79;21477;-73
2021/04/03 04:36:58;;;;;;;54.55;29.72;;;;;;;-0.91;95.01;98750.84;1800118;79;21470;-73
2021/04/03 04:39:28;;;;;;;44.85;24.75;;;;;;;-0.81;94.93;98747.39;1799368;78;22134;-73
2021/04/03 04:41:56;;;;;;;43.15;21.77;;;;;;;-0.71;94.74;98744.22;1799042;78;21023;-74
2021/04/03 04:44:23;;;;;;;40.00;16.67;;;;;;;-0.63;94.44;98748.84;1786210;79;21122;-72
2021/04/03 04:46:52;;;;;;;34.20;15.13;;;;;;;-0.56;94.25;98745.34;1798412;79;21031;-73
2021/04/03 04:49:20;;;;;;;25.00;12.53;;;;;;;-0.44;94.40;98749.98;1797942;79;20932;-73
2021/04/03 04:51:48;;;;;;;34.48;12.82;;;;;;;-0.35;94.21;98744.36;1803509;79;21156;-73
2021/04/03 04:54:18;;;;;;;26.55;12.00;;;;;;;-0.28;93.68;98748.16;1805345;79;21562;-73
2021/04/03 04:56:48;;;;;;;22.22;11.28;;;;;;;-0.23;93.04;98738.20;1806115;79;20992;-75
2021/04/03 04:59:17;;;;;;;23.83;9.40;;;;;;;-0.13;93.26;98728.79;1806114;79;20955;-75
2021/04/03 05:01:47;;;;;;;20.43;9.13;;;;;;;-0.03;93.08;98732.86;1805829;79;20924;-74
2021/04/03 05:04:15;;;;;;;17.98;8.80;;;;;;;0.08;92.59;98730.16;1806204;79;21363;-80
2021/04/03 05:06:43;;;;;;;18.52;9.03;;;;;;;0.16;91.98;98737.73;1806125;79;21542;-76
2021/04/03 05:09:10;;;;;;;18.98;8.40;;;;;;;0.23;91.89;98722.89;1757305;81;20903;-77
2021/04/03 05:11:40;;;;;;;18.85;9.60;;;;;;;0.35;91.70;98723.98;1730476;82;21121;-76
2021/04/03 05:14:07;;;;;;;22.60;11.22;;;;;;;0.45;90.94;98725.89;1747215;82;21080;-73
2021/04/03 05:16:35;;;;;;;31.93;17.30;;;;;;;0.51;89.87;98726.16;1736129;82;21208;-81
2021/04/03 05:19:02;;;;;;;27.25;12.40;;;;;;;0.61;89.62;98735.04;1735871;82;21598;-72
2021/04/03 05:21:31;;;;;;;16.45;7.72;;;;;;;0.72;89.76;98730.45;1754113;81;21129;-81
2021/04/03 05:23:59;;;;;;;18.50;8.28;;;;;;;0.88;89.33;98738.81;1711280;83;21022;-74
2021/04/03 05:26:26;;;;;;;13.98;6.20;;;;;;;0.99;88.69;98744.47;1735890;82;21121;-72
2021/04/03 05:28:53;;;;;;;12.65;6.80;;;;;;;1.13;87.98;98742.02;1735832;82;21779;-79
2021/04/03 05:31:21;;;;;;;12.45;6.05;;;;;;;1.24;87.11;98746.29;1735726;82;20962;-71
2021/04/03 05:33:49;;;;;;;15.53;6.95;;;;;;;1.32;85.65;98745.73;1735806;82;20946;-73
2021/04/03 05:36:18;;;;;;;14.70;6.97;;;;;;;1.39;84.59;98745.98;1732137;82;21080;-73
2021/04/03 05:38:46;;;;;;;17.98;7.17;;;;;;;1.44;84.30;98754.89;1739046;82;21128;-70
2021/04/03 05:41:13;;;;;;;16.23;6.55;;;;;;;1.51;83.50;98756.77;1725679;82;21444;-71
2021/04/03 05:43:40;;;;;;;19.77;7.87;;;;;;;1.57;82.49;98758.37;1729297;82;21670;-72
2021/04/03 05:46:09;;;;;;;19.98;7.47;;;;;;;1.62;81.71;98754.30;1725568;82;21202;-73
2021/04/03 05:48:36;;;;;;;23.98;8.30;;;;;;;1.72;81.65;98758.05;1741234;82;21199;-72
2021/04/03 05:51:04;;;;;;;13.45;7.03;;;;;;;1.78;80.62;98755.55;1713776;81;21155;-73
2021/04/03 05:53:34;;;;;;;14.23;6.37;;;;;;;1.83;80.22;98763.66;1748760;81;21389;-73
2021/04/03 05:56:02;;;;;;;12.70;6.10;;;;;;;1.89;79.59;98767.41;1731997;81;21136;-74
2021/04/03 05:58:31;;;;;;;16.05;7.25;;;;;;;1.95;79.29;98769.01;1756997;80;21587;-72
2021/04/03 06:00:59;;;;;;;19.15;7.08;;;;;;;2.03;79.37;98768.97;1753323;81;21185;-73
2021/04/03 06:03:26;;;;;;;16.65;6.20;;;;;;;2.14;79.06;98768.38;1743926;81;21139;-73
2021/04/03 06:05:54;;;;;;;12.90;6.70;;;;;;;2.24;78.39;98776.44;1745732;81;21152;-73
2021/04/03 06:08:26;;;;;;;12.55;7.20;;;;;;;2.32;78.25;98778.53;1760712;81;21602;-73
2021/04/03 06:11:15;;;;;;;17.23;7.37;;;;;;;2.43;77.85;98781.98;1725169;83;21582;-72
2021/04/03 06:13:49;;;;;;;18.10;9.35;;;;;;;2.53;78.37;98782.73;1726745;83;21622;-73
2021/04/03 06:16:38;;;;;;;15.98;7.10;;;;;;;2.69;78.21;98796.17;1724723;82;21088;-73
2021/04/03 06:19:13;;;;;;;17.02;6.90;;;;;;;2.79;75.62;98804.23;1727486;82;21284;-72
2021/04/03 06:24:38;;;;;;;14.55;7.50;;;;;;;2.93;75.21;98806.53;1853951;76;22855;-73
2021/04/03 06:27:11;;;;;;;12.78;6.83;;;;;;;2.96;75.36;98811.39;1834078;78;20876;-73
2021/04/03 06:29:48;;;;;;;16.97;7.40;;;;;;;3.08;75.74;98808.31;1756911;81;21570;-73
2021/04/03 06:32:31;;;;;;;17.70;7.50;;;;;;;3.25;75.63;98813.58;1750313;80;21497;-78
2021/04/03 06:34:57;;;;;;;16.27;6.25;;;;;;;3.45;76.10;98818.00;1762145;79;20953;-72
2021/04/03 06:37:31;;;;;;;17.30;6.67;;;;;;;3.60;73.38;98821.08;1782144;79;21543;-71
2021/04/03 06:40:10;;;;;;;10.95;5.95;;;;;;;3.72;72.00;98822.85;1782253;80;20909;-74
2021/04/03 06:42:49;;;;;;;9.95;4.95;;;;;;;3.86;71.94;98825.69;1782196;80;21332;-73
2021/04/03 06:45:26;;;;;;;13.83;5.72;;;;;;;3.99;71.11;98820.92;1782201;80;20945;-71
2021/04/03 06:48:06;;;;;;;8.00;4.50;;;;;;;4.10;71.47;98818.30;1782264;80;20925;-73
2021/04/03 06:50:45;;;;;;;10.03;5.33;;;;;;;4.20;70.56;98829.05;1782242;80;20914;-72
2021/04/03 06:53:17;;;;;;;10.93;4.67;;;;;;;4.35;70.62;98819.08;1782203;79;21000;-70
2021/04/03 06:55:47;;;;;;;9.43;4.30;;;;;;;4.58;71.11;98830.45;1752352;80;21342;-72
2021/04/03 06:58:15;;;;;;;9.65;4.12;;;;;;;4.85;71.39;98830.56;1751331;82;21515;-72
2021/04/03 07:00:45;;;;;;;9.30;4.03;;;;;;;5.09;67.50;98834.54;1751234;81;20945;-71
2021/04/03 07:03:23;;;;;;;13.08;4.20;;;;;;;5.26;67.04;98833.41;1669689;83;21023;-69
2021/04/03 07:05:51;;;;;;;13.08;4.15;;;;;;;5.41;66.13;98827.45;1721343;81;21570;-70
2021/04/03 07:08:20;;;;;;;7.58;3.40;;;;;;;5.54;65.07;98826.67;1721515;83;22264;-71
2021/04/03 07:10:48;;;;;;;9.43;4.55;;;;;;;5.75;65.40;98831.20;1721304;83;20949;-69
2021/04/03 07:13:17;;;;;;;8.18;4.25;;;;;;;5.75;65.40;98831.20;1721340;83;20937;-70
2021/04/03 07:15:45;;;;;;;23.52;7.47;;;;;;;5.83;65.48;98840.80;1721397;82;21534;-70
2021/04/03 07:18:14;;;;;;;7.80;3.92;;;;;;;5.85;64.71;98844.04;1721334;82;21001;-71
2021/04/03 07:20:42;;;;;;;31.48;7.60;;;;;;;5.87;63.95;98845.91;1701224;82;21461;-69
2021/04/03 07:23:11;;;;;;;10.38;4.92;;;;;;;5.95;64.48;98843.88;1754820;81;21162;-69
2021/04/03 07:25:42;;;;;;;14.83;6.33;;;;;;;6.40;64.57;98844.03;1767519;80;20997;-67
2021/04/03 07:28:10;;;;;;;8.70;4.58;;;;;;;6.40;64.57;98844.03;1767696;81;21184;-69
2021/04/03 07:30:45;;;;;;;10.13;4.37;;;;;;;7.02;62.89;98847.54;1767605;80;21212;-69
2021/04/03 07:33:20;;;;;;;11.40;5.10;;;;;;;7.02;62.89;98847.54;1767447;80;21366;-69
2021/04/03 07:35:51;;;;;;;6.87;3.72;;;;;;;7.29;62.60;98850.97;1767181;81;21131;-69
2021/04/03 07:38:26;;;;;;;8.98;3.42;;;;;;;7.56;58.88;98856.81;1767237;80;21180;-68
2021/04/03 07:41:03;;;;;;;11.85;4.20;;;;;;;7.87;60.47;98863.66;1767091;80;21148;-69
2021/04/03 07:43:40;;;;;;;10.35;3.80;;;;;;;8.24;57.26;98863.70;1767089;81;21163;-68
2021/04/03 07:46:23;;;;;;;6.03;2.90;;;;;;;8.54;54.19;98864.78;1767098;80;22345;-68
2021/04/03 07:48:58;;;;;;;8.28;3.17;;;;;;;8.66;49.62;98870.20;1767058;81;21175;-68
2021/04/03 07:51:34;;;;;;;6.47;2.80;;;;;;;8.77;51.35;98870.11;1767057;80;21112;-68
2021/04/03 07:54:04;;;;;;;7.72;2.70;;;;;;;8.99;50.15;98865.87;1767090;81;21037;-68
2021/04/03 07:56:51;;;;;;;7.33;2.72;;;;;;;9.19;49.37;98852.90;1767349;81;21104;-68
2021/04/03 07:59:47;;;;;;;5.70;2.62;;;;;;;9.37;49.13;98847.38;1767764;81;22258;-67
2021/04/03 08:02:20;;;;;;;6.10;2.98;;;;;;;9.49;49.10;98846.95;1754518;81;21087;-67
2021/04/03 08:04:48;;;;;;;7.50;3.47;;;;;;;9.55;49.34;98842.11;1737192;81;20941;-67
2021/04/03 08:07:19;;;;;;;8.33;3.15;;;;;;;9.55;48.18;98840.17;1755769;81;21043;-67
2021/04/03 08:09:49;;;;;;;6.03;3.05;;;;;;;9.68;47.71;98847.16;1746338;82;20933;-67
2021/04/03 08:12:16;;;;;;;3.58;2.12;;;;;;;9.75;46.56;98851.58;1750254;81;22010;-68
2021/04/03 08:14:44;;;;;;;8.35;2.45;;;;;;;9.82;46.47;98846.40;1767329;81;21491;-68
2021/04/03 08:17:21;;;;;;;6.30;2.60;;;;;;;9.94;45.66;98858.26;1767680;80;21005;-68
2021/04/03 08:19:50;;;;;;;6.17;2.83;;;;;;;9.97;44.93;98851.31;1745987;81;21041;-68
2021/04/03 08:22:20;;;;;;;6.65;2.60;;;;;;;10.06;46.68;98851.28;1742934;81;21561;-70
2021/04/03 08:24:56;;;;;;;5.60;2.20;;;;;;;10.19;43.13;98847.52;1765051;81;21194;-70
2021/04/03 08:27:36;;;;;;;15.78;5.10;;;;;;;10.06;42.84;98837.57;1730415;81;21100;-67
2021/04/03 08:30:20;;;;;;;11.88;2.77;;;;;;;9.97;44.47;98835.43;1741204;81;20996;-69
2021/04/03 08:32:35;;;;;;;8.23;2.45;;;;;;;10.18;44.59;98839.05;1726185;83;20989;-69
2021/04/03 08:35:03;;;;;;;8.15;3.52;;;;;;;10.55;42.23;98842.33;1726243;82;21036;-69
2021/04/03 08:37:31;;;;;;;51.45;9.58;;;;;;;10.80;43.00;98838.38;1726193;83;22352;-69
2021/04/03 08:39:59;;;;;;;22.05;4.65;;;;;;;10.99;39.95;98840.63;1742790;80;21938;-70
2021/04/03 08:42:27;;;;;;;12.82;3.85;;;;;;;10.90;38.86;98844.27;1756529;81;20902;-69
2021/04/03 08:44:56;;;;;;;9.08;2.83;;;;;;;10.78;40.73;98848.31;1756271;81;20933;-69
2021/04/03 08:47:24;;;;;;;6.83;2.58;;;;;;;10.94;39.64;98849.09;1756286;81;20956;-69
2021/04/03 08:49:52;;;;;;;2.75;1.20;;;;;;;11.20;38.73;98853.21;1756276;81;21391;-68
2021/04/03 08:52:22;;;;;;;4.33;1.35;;;;;;;11.35;35.94;98845.48;1756168;81;21004;-68
2021/04/03 08:54:51;;;;;;;5.45;2.00;;;;;;;11.37;34.69;98835.77;1756292;81;21027;-68
2021/04/03 08:57:24;;;;;;;2.83;1.35;;;;;;;11.43;37.74;98842.66;1756281;80;21077;-68
2021/04/03 08:59:59;;;;;;;11.05;2.62;;;;;;;11.76;38.39;98844.56;1756326;80;21016;-70
2021/04/03 09:02:27;;;;;;;7.00;2.10;;;;;;;12.36;38.06;98843.84;1756226;81;21371;-68
2021/04/03 09:04:55;;;;;;;6.72;1.57;;;;;;;12.90;36.70;98854.55;1756179;81;20950;-68
2021/04/03 09:07:33;;;;;;;4.03;1.90;;;;;;;13.26;33.92;98850.92;1756277;81;20937;-68
2021/04/03 09:10:08;;;;;;;4.58;1.77;;;;;;;13.28;34.13;98851.95;1756290;81;21565;-68
2021/04/03 09:12:36;;;;;;;5.78;1.62;;;;;;;13.25;34.53;98849.89;1756316;81;20940;-67
2021/04/03 09:15:30;;;;;;;3.65;1.40;;;;;;;13.35;34.55;98840.52;1756266;81;21662;-68
2021/04/03 09:18:01;;;;;;;5.95;1.55;;;;;;;13.48;32.34;98844.83;1738670;82;21028;-68
2021/04/03 09:20:32;;;;;;;3.00;1.62;;;;;;;13.59;34.67;98843.74;1738827;82;21005;-68
2021/04/03 09:23:05;;;;;;;7.15;1.72;;;;;;;13.83;32.21;98838.09;1738665;82;21586;-68
2021/04/03 09:25:33;;;;;;;9.55;3.02;;;;;;;13.86;31.56;98839.34;1738814;82;21578;-68
2021/04/03 09:28:06;;;;;;;8.73;1.80;;;;;;;13.85;31.66;98838.54;1738696;82;21200;-67
2021/04/03 09:30:40;;;;;;;4.03;1.75;;;;;;;13.99;31.39;98833.14;1738826;82;20949;-68
2021/04/03 09:33:24;;;;;;;4.85;3.00;;;;;;;14.14;31.62;98837.86;1738732;82;21605;-68
2021/04/03 09:35:55;;;;;;;2.72;1.65;;;;;;;14.36;29.48;98841.95;1738695;82;21060;-66
2021/04/03 09:38:30;;;;;;;4.92;2.02;;;;;;;14.37;29.07;98833.89;1723551;81;21071;-67
2021/04/03 09:40:58;;;;;;;5.00;2.08;;;;;;;14.27;29.86;98831.09;1729598;82;21263;-68
2021/04/03 09:43:42;;;;;;;3.80;1.50;;;;;;;13.94;29.55;98821.79;1695127;82;21539;-67
2021/04/03 09:46:10;;;;;;;2.83;1.70;;;;;;;13.41;29.60;98821.77;1725390;82;21008;-66
2021/04/03 09:48:41;;;;;;;4.12;1.57;;;;;;;12.97;31.95;98831.34;1738378;82;21033;-68
2021/04/03 09:51:09;;;;;;;3.00;1.47;;;;;;;12.75;31.31;98836.78;1738405;82;21111;-67
2021/04/03 09:53:38;;;;;;;3.65;1.40;;;;;;;12.55;31.53;98831.67;1738477;82;21940;-66
2021/04/03 09:56:06;;;;;;;2.22;1.25;;;;;;;12.29;30.99;98830.42;1711933;82;20957;-66
2021/04/03 09:58:34;;;;;;;2.58;1.30;;;;;;;12.07;31.12;98829.75;1736352;81;20957;-66
2021/04/03 10:01:04;;;;;;;4.30;2.15;;;;;;;11.97;31.75;98830.77;1715337;82;21012;-67
2021/04/03 10:03:32;;;;;;;3.42;1.50;;;;;;;11.98;32.44;98830.43;1720358;82;21079;-66
2021/04/03 10:06:01;;;;;;;1.85;1.50;;;;;;;12.10;32.22;98828.27;1709222;83;23430;-67
2021/04/03 10:08:29;;;;;;;3.85;1.65;;;;;;;12.44;33.42;98834.66;1709203;84;21005;-67
2021/04/03 10:10:58;;;;;;;2.92;1.87;;;;;;;13.03;32.87;98831.33;1693179;84;21527;-67
2021/04/03 10:13:26;;;;;;;3.25;1.62;;;;;;;13.54;31.09;98835.14;1709212;84;21069;-67
2021/04/03 10:15:54;;;;;;;2.25;1.17;;;;;;;13.76;29.58;98820.55;1710075;82;21227;-67
2021/04/03 10:18:23;;;;;;;4.03;1.40;;;;;;;13.90;28.86;98829.17;1718678;83;21506;-67
2021/04/03 10:20:51;;;;;;;2.90;1.60;;;;;;;14.09;30.49;98825.71;1718713;83;20976;-67
2021/04/03 10:23:18;;;;;;;2.35;1.47;;;;;;;14.38;28.24;98823.88;1718600;83;20987;-67
2021/04/03 10:25:47;;;;;;;1.85;1.32;;;;;;;14.58;27.71;98818.41;1718615;83;20944;-67
2021/04/03 10:28:16;;;;;;;2.50;1.42;;;;;;;14.62;27.29;98830.34;1718722;83;20960;-67
2021/04/03 10:30:43;;;;;;;4.33;1.90;;;;;;;14.55;28.99;98822.69;1718717;83;21203;-67
2021/04/03 10:33:11;;;;;;;5.97;2.70;;;;;;;14.73;29.60;98818.95;1718617;83;21612;-67
2021/04/03 10:35:39;;;;;;;4.10;1.42;;;;;;;14.95;30.18;98824.38;1718658;83;20991;-70
2021/04/03 10:38:09;;;;;;;3.15;1.52;;;;;;;15.11;30.08;98817.59;1717894;83;21035;-69
2021/04/03 10:40:37;;;;;;;3.00;1.92;;;;;;;15.33;29.65;98806.97;1718053;83;21150;-70
2021/04/03 10:43:05;;;;;;;4.20;1.77;;;;;;;15.31;26.23;98811.48;1718003;83;22219;-70
2021/04/03 10:45:32;;;;;;;2.22;1.50;;;;;;;15.16;28.71;98809.01;1717973;83;21134;-70
2021/04/03 10:48:00;;;;;;;5.00;1.98;;;;;;;15.27;26.90;98819.48;1718179;83;21134;-70
2021/04/03 10:50:27;;;;;;;2.47;1.27;;;;;;;15.32;27.67;98817.81;1717989;82;21169;-70
2021/04/03 10:52:55;;;;;;;3.47;2.08;;;;;;;15.30;26.63;98811.84;1718126;83;22636;-69
2021/04/03 10:58:11;;;;;;;5.17;2.55;;;;;;;15.09;27.77;98809.45;1872297;75;22747;-69
2021/04/03 11:00:38;;;;;;;3.60;1.77;;;;;;;15.15;28.02;98819.84;1841031;78;21554;-70
2021/04/03 11:03:06;;;;;;;4.90;2.00;;;;;;;15.06;25.49;98823.41;1821255;78;21603;-70
2021/04/03 11:05:34;;;;;;;4.30;2.22;;;;;;;14.79;27.41;98816.93;1808296;79;21029;-68
2021/04/03 11:08:03;;;;;;;8.58;4.97;;;;;;;14.94;27.89;98814.48;1808640;79;20885;-67
2021/04/03 11:10:31;;;;;;;5.30;2.02;;;;;;;15.12;27.46;98810.90;1808639;79;20948;-67
2021/04/03 11:12:59;;;;;;;3.85;2.00;;;;;;;15.20;26.84;98816.80;1808604;79;20932;-68
2021/04/03 11:15:27;;;;;;;1.90;0.90;;;;;;;15.29;28.91;98818.55;1807748;79;21238;-67
2021/04/03 11:17:57;;;;;;;3.25;1.57;;;;;;;15.47;26.95;98808.63;1808445;78;21814;-67
2021/04/03 11:20:25;;;;;;;3.27;1.55;;;;;;;15.73;26.91;98799.64;1808636;79;21047;-67
2021/04/03 11:22:54;;;;;;;5.17;2.50;;;;;;;15.97;28.22;98797.90;1807449;79;21070;-68
2021/04/03 11:25:22;;;;;;;2.15;1.50;;;;;;;16.09;27.02;98802.45;1807311;79;21153;-68
2021/04/03 11:27:50;;;;;;;1.90;1.22;;;;;;;16.24;26.45;98813.94;1807768;79;21601;-68
2021/04/03 11:30:19;;;;;;;5.45;1.82;;;;;;;16.33;25.11;98810.33;1807793;78;21747;-68
2021/04/03 11:32:49;;;;;;;3.90;1.62;;;;;;;16.09;26.71;98810.16;1807642;79;21054;-68
2021/04/03 11:35:21;;;;;;;3.95;1.98;;;;;;;15.69;26.34;98817.55;1808305;79;21633;-67
2021/04/03 11:37:48;;;;;;;2.55;1.57;;;;;;;15.41;26.23;98815.62;1804221;79;21558;-67
2021/04/03 11:40:18;;;;;;;2.80;1.62;;;;;;;15.26;23.98;98806.83;1808200;79;21350;-68
2021/04/03 11:42:48;;;;;;;9.53;4.03;;;;;;;15.34;23.99;98819.05;1808485;78;21007;-68
2021/04/03 11:45:18;;;;;;;2.47;1.70;;;;;;;15.45;24.80;98817.30;1808609;79;21506;-68
2021/04/03 11:47:46;;;;;;;7.33;2.02;;;;;;;15.68;23.40;98817.92;1807492;79;21185;-68
2021/04/03 11:50:15;;;;;;;5.17;2.33;;;;;;;15.80;25.66;98820.52;1807624;78;21622;-68
2021/04/03 11:52:44;;;;;;;7.28;2.22;;;;;;;15.93;25.15;98821.95;1808342;79;22236;-68